createdAt,value
2023-11-18T00:00:23.275Z,26.20
2023-11-18T00:03:17.750Z,26.30
2023-11-18T00:06:11.992Z,26.30
2023-11-18T00:09:06.540Z,26.40
2023-11-18T00:12:00.766Z,26.50
2023-11-18T00:14:55.012Z,26.60
2023-11-18T00:17:49.243Z,26.60
2023-11-18T00:20:43.472Z,26.60
2023-11-18T00:23:38.411Z,26.70
2023-11-18T00:26:32.582Z,26.60
2023-11-18T00:29:27.810Z,26.60
2023-11-18T00:32:22.435Z,26.60
2023-11-18T00:35:17.015Z,26.50
2023-11-18T00:38:12.416Z,26.50
2023-11-18T00:41:08.987Z,26.50
2023-11-18T00:44:03.227Z,26.50
2023-11-18T00:46:59.895Z,26.50
2023-11-18T00:49:57.097Z,26.50
2023-11-18T00:52:52.054Z,26.60
2023-11-18T00:55:46.684Z,26.60
2023-11-18T00:58:42.575Z,26.60
2023-11-18T01:01:36.925Z,26.50
2023-11-18T01:04:31.237Z,26.60
2023-11-18T01:07:25.970Z,26.60
2023-11-18T01:10:21.730Z,26.70
2023-11-18T01:13:16.467Z,26.70
2023-11-18T01:16:11.718Z,26.60
2023-11-18T01:19:06.457Z,26.70
2023-11-18T01:22:01.233Z,26.60
2023-11-18T01:24:55.959Z,26.50
2023-11-18T01:27:50.669Z,26.50
2023-11-18T01:30:47.238Z,26.50
2023-11-18T01:33:46.048Z,26.50
2023-11-18T01:36:40.670Z,26.60
2023-11-18T01:39:35.342Z,26.70
2023-11-18T01:42:30.053Z,26.70
2023-11-18T01:45:24.789Z,26.70
2023-11-18T01:48:19.950Z,26.80
2023-11-18T01:51:15.175Z,26.80
2023-11-18T01:54:17.526Z,26.80
2023-11-18T01:57:12.919Z,26.80
2023-11-18T02:00:08.889Z,26.90
2023-11-18T02:03:03.838Z,27.00
2023-11-18T02:05:59.578Z,27.00
2023-11-18T02:08:54.402Z,27.00
2023-11-18T02:12:04.126Z,27.10
2023-11-18T02:15:03.353Z,27.00
2023-11-18T02:18:00.419Z,27.10
2023-11-18T02:20:56.000Z,27.10
2023-11-18T02:23:52.193Z,27.20
2023-11-18T02:26:48.356Z,27.30
2023-11-18T02:29:50.267Z,27.40
2023-11-18T02:32:58.718Z,27.50
2023-11-18T02:36:08.155Z,27.70
2023-11-18T02:39:05.351Z,28.00
2023-11-18T02:42:04.352Z,28.20
2023-11-18T02:45:01.884Z,28.20
2023-11-18T02:47:59.915Z,28.30
2023-11-18T02:50:54.677Z,28.40
2023-11-18T02:53:49.327Z,28.40
2023-11-18T02:56:44.139Z,28.50
2023-11-18T02:59:38.857Z,28.40
2023-11-18T03:02:34.140Z,28.30
2023-11-18T03:05:28.941Z,28.20
2023-11-18T03:08:23.655Z,28.20
2023-11-18T03:11:18.432Z,28.20
2023-11-18T03:14:13.479Z,28.30
2023-11-18T03:17:12.405Z,28.40
2023-11-18T03:20:14.476Z,28.60
2023-11-18T03:23:11.619Z,28.80
2023-11-18T03:26:08.061Z,29.00
2023-11-18T03:29:03.159Z,29.10
2023-11-18T03:31:58.356Z,29.20
2023-11-18T03:34:53.078Z,29.30
2023-11-18T03:37:47.850Z,29.30
2023-11-18T03:40:43.918Z,29.30
2023-11-18T03:43:40.286Z,29.30
2023-11-18T03:46:36.958Z,29.30
2023-11-18T03:49:31.685Z,29.20
2023-11-18T03:52:26.984Z,29.10
2023-11-18T03:55:22.096Z,29.00
2023-11-18T03:58:16.852Z,29.00
2023-11-18T04:01:13.712Z,28.90
2023-11-18T04:04:08.536Z,28.80
2023-11-18T04:07:06.440Z,28.90
2023-11-18T04:10:02.656Z,29.00
2023-11-18T04:12:57.404Z,29.10
2023-11-18T04:15:52.064Z,29.20
2023-11-18T04:18:48.451Z,29.20
2023-11-18T04:21:43.171Z,29.30
2023-11-18T04:24:38.422Z,29.40
2023-11-18T04:27:33.045Z,29.40
2023-11-18T04:30:28.145Z,29.50
2023-11-18T04:33:22.784Z,29.70
2023-11-18T04:36:18.733Z,29.70
2023-11-18T04:39:18.225Z,29.80
2023-11-18T04:42:12.901Z,29.90
2023-11-18T04:45:07.932Z,29.80
2023-11-18T04:48:02.789Z,29.80
2023-11-18T04:50:57.486Z,29.90
2023-11-18T04:53:52.294Z,29.80
2023-11-18T04:56:47.001Z,29.60
2023-11-18T04:59:41.772Z,29.40
2023-11-18T05:02:36.957Z,29.30
2023-11-18T05:05:31.665Z,29.10
2023-11-18T05:08:26.414Z,28.80
2023-11-18T05:11:21.241Z,28.60
2023-11-18T05:14:16.641Z,28.50
2023-11-18T05:17:11.429Z,28.40
2023-11-18T05:20:07.490Z,28.30
2023-11-18T05:23:02.582Z,28.20
2023-11-18T05:25:58.383Z,28.20
2023-11-18T05:28:53.504Z,28.30
2023-11-18T05:31:48.431Z,28.40
2023-11-18T05:34:43.486Z,28.50
2023-11-18T05:37:40.487Z,28.50
2023-11-18T05:40:37.320Z,28.60
2023-11-18T05:43:43.147Z,28.70
2023-11-18T05:46:38.425Z,28.90
2023-11-18T05:49:33.197Z,29.10
2023-11-18T05:52:27.940Z,29.20
2023-11-18T05:55:23.070Z,29.30
2023-11-18T05:58:17.738Z,29.30
2023-11-18T06:01:14.294Z,29.40
2023-11-18T06:04:11.060Z,29.50
2023-11-18T06:07:05.794Z,29.60
2023-11-18T06:10:00.535Z,29.70
2023-11-18T06:12:55.734Z,29.70
2023-11-18T06:15:52.353Z,29.70
2023-11-18T06:18:47.801Z,29.70
2023-11-18T06:21:43.138Z,29.70
2023-11-18T06:24:37.897Z,29.70
2023-11-18T06:27:32.848Z,29.70
2023-11-18T06:30:28.720Z,29.60
2023-11-18T06:33:25.432Z,29.50
2023-11-18T06:36:28.817Z,29.50
2023-11-18T06:39:30.283Z,29.50
2023-11-18T06:42:26.118Z,29.40
2023-11-18T06:45:20.836Z,29.20
2023-11-18T06:48:17.274Z,29.20
2023-11-18T06:51:11.987Z,29.10
2023-11-18T06:54:12.650Z,29.20
2023-11-18T06:57:07.434Z,29.30
2023-11-18T07:00:02.213Z,29.20
2023-11-18T07:02:57.059Z,29.20
2023-11-18T07:05:51.830Z,29.20
2023-11-18T07:08:46.873Z,29.10
2023-11-18T07:11:43.428Z,29.00
2023-11-18T07:14:38.121Z,29.00
2023-11-18T07:17:32.958Z,28.90
2023-11-18T07:20:27.656Z,28.90
2023-11-18T07:23:23.159Z,28.90
2023-11-18T07:26:18.012Z,29.00
2023-11-18T07:29:12.791Z,29.10
2023-11-18T07:32:12.427Z,29.10
2023-11-18T07:35:11.346Z,29.00
2023-11-18T07:38:06.764Z,29.00
2023-11-18T07:41:01.650Z,29.10
2023-11-18T07:43:58.433Z,29.10
2023-11-18T07:46:53.176Z,29.00
2023-11-18T07:49:48.282Z,29.00
2023-11-18T07:52:43.702Z,29.00
2023-11-18T07:55:41.962Z,29.00
2023-11-18T07:58:39.805Z,29.10
2023-11-18T08:01:36.061Z,28.90
2023-11-18T08:04:30.799Z,28.80
2023-11-18T08:07:25.450Z,28.80
2023-11-18T08:10:21.236Z,28.70
2023-11-18T08:13:16.055Z,28.70
2023-11-18T08:16:11.296Z,28.70
2023-11-18T08:19:08.395Z,28.70
2023-11-18T08:22:02.500Z,28.70
2023-11-18T08:24:57.189Z,28.60
2023-11-18T08:27:51.677Z,28.70
2023-11-18T08:30:45.965Z,28.60
2023-11-18T08:33:40.424Z,28.60
2023-11-18T08:36:36.164Z,28.50
2023-11-18T08:39:31.387Z,28.40
2023-11-18T08:42:26.719Z,28.40
2023-11-18T08:45:31.750Z,28.30
2023-11-18T08:48:26.094Z,28.30
2023-11-18T08:51:20.332Z,28.20
2023-11-18T08:54:27.912Z,28.20
2023-11-18T08:57:27.681Z,28.20
2023-11-18T09:00:40.919Z,28.10
2023-11-18T09:03:38.616Z,28.00
2023-11-18T09:06:36.136Z,27.90
2023-11-18T09:09:30.446Z,27.90
2023-11-18T09:12:24.696Z,27.80
2023-11-18T09:15:24.665Z,27.80
2023-11-18T09:18:20.569Z,27.70
2023-11-18T09:21:21.597Z,27.70
2023-11-18T09:24:16.405Z,27.70
2023-11-18T09:27:11.657Z,27.60
2023-11-18T09:30:09.486Z,27.50
2023-11-18T09:33:05.021Z,27.40
2023-11-18T09:36:02.718Z,27.30
2023-11-18T09:38:56.946Z,27.20
2023-11-18T09:41:51.808Z,27.10
2023-11-18T09:44:46.300Z,27.10
2023-11-18T09:47:44.474Z,27.10
2023-11-18T09:50:40.540Z,27.00
2023-11-18T09:53:39.432Z,26.90
2023-11-18T09:56:59.297Z,26.80
2023-11-18T09:59:57.089Z,26.80
2023-11-18T10:02:53.306Z,26.70
2023-11-18T10:05:49.294Z,26.60
2023-11-18T10:08:48.099Z,26.60
2023-11-18T10:11:43.644Z,26.60
2023-11-18T10:14:48.149Z,26.50
2023-11-18T10:18:04.936Z,26.50
2023-11-18T10:21:02.029Z,26.40
2023-11-18T10:24:03.594Z,26.40
2023-11-18T10:27:00.717Z,26.30
2023-11-18T10:30:21.236Z,26.20
2023-11-18T10:33:18.741Z,26.20
2023-11-18T10:36:27.365Z,26.10
2023-11-18T10:39:25.511Z,26.10
2023-11-18T10:42:20.566Z,26.10
2023-11-18T10:45:15.213Z,26.00
2023-11-18T10:48:09.896Z,25.90
2023-11-18T10:51:04.185Z,25.90
2023-11-18T10:54:03.479Z,25.90
2023-11-18T10:57:00.727Z,25.80
2023-11-18T11:00:21.559Z,25.80
2023-11-18T11:03:16.619Z,25.80
2023-11-18T11:06:21.959Z,25.80
2023-11-18T11:09:19.180Z,25.80
2023-11-18T11:12:17.336Z,25.70
2023-11-18T11:15:23.728Z,25.80
2023-11-18T11:18:25.417Z,25.80
2023-11-18T11:21:32.260Z,25.70
2023-11-18T11:25:05.863Z,25.70
2023-11-18T11:28:13.326Z,25.70
2023-11-18T11:31:41.189Z,25.70
2023-11-18T11:34:38.142Z,25.60
2023-11-18T11:37:37.072Z,25.60
2023-11-18T11:40:32.988Z,25.60
2023-11-18T11:43:30.255Z,25.60
2023-11-18T11:46:25.559Z,25.50
2023-11-18T11:49:39.949Z,25.50
2023-11-18T11:52:39.889Z,25.50
2023-11-18T11:55:39.635Z,25.50
2023-11-18T11:58:38.982Z,25.50
2023-11-18T12:01:39.853Z,25.40
2023-11-18T12:04:34.905Z,25.40
2023-11-18T12:07:30.259Z,25.40
2023-11-18T12:10:33.992Z,25.30
2023-11-18T12:13:28.634Z,25.30
2023-11-18T12:16:23.349Z,25.30
2023-11-18T12:20:00.576Z,25.30
2023-11-18T12:23:17.776Z,25.20
2023-11-18T12:26:52.341Z,25.20
2023-11-18T12:29:46.690Z,25.20
2023-11-18T12:33:03.677Z,25.10
2023-11-18T12:36:33.262Z,25.10
2023-11-18T12:40:01.721Z,25.10
2023-11-18T12:43:02.842Z,25.10
2023-11-18T12:46:31.442Z,25.00
2023-11-18T12:49:26.970Z,25.00
2023-11-18T12:52:23.674Z,25.00
2023-11-18T12:55:21.409Z,25.00
2023-11-18T12:58:15.840Z,25.00
2023-11-18T13:01:10.117Z,25.00
2023-11-18T13:04:05.161Z,25.00
2023-11-18T13:07:00.503Z,25.00
2023-11-18T13:09:56.674Z,24.90
2023-11-18T13:12:52.288Z,24.90
2023-11-18T13:15:47.173Z,24.80
2023-11-18T13:18:52.111Z,24.80
2023-11-18T13:21:46.507Z,24.80
2023-11-18T13:24:43.039Z,24.80
2023-11-18T13:27:38.333Z,24.70
2023-11-18T13:30:32.603Z,24.70
2023-11-18T13:33:27.202Z,24.70
2023-11-18T13:36:23.404Z,24.70
2023-11-18T13:39:24.514Z,24.70
2023-11-18T13:42:26.175Z,24.60
2023-11-18T13:45:33.341Z,24.60
2023-11-18T13:48:31.185Z,24.50
2023-11-18T13:51:27.076Z,24.50
2023-11-18T13:54:21.349Z,24.50
2023-11-18T13:57:16.094Z,24.50
2023-11-18T14:00:17.333Z,24.40
2023-11-18T14:03:14.209Z,24.40
2023-11-18T14:06:12.870Z,24.40
2023-11-18T14:09:07.235Z,24.30
2023-11-18T14:12:01.546Z,24.30
2023-11-18T14:14:55.918Z,24.30
2023-11-18T14:17:51.980Z,24.20
2023-11-18T14:20:46.303Z,24.20
2023-11-18T14:23:40.630Z,24.20
2023-11-18T14:26:35.304Z,24.10
2023-11-18T14:29:30.518Z,24.00
2023-11-18T14:32:24.921Z,24.10
2023-11-18T14:35:19.514Z,24.00
2023-11-18T14:38:15.194Z,24.00
2023-11-18T14:41:10.156Z,24.00
2023-11-18T14:44:06.576Z,23.90
2023-11-18T14:47:02.425Z,23.90
2023-11-18T14:49:56.738Z,23.90
2023-11-18T14:52:53.940Z,23.90
2023-11-18T14:55:48.298Z,23.80
2023-11-18T14:58:42.671Z,23.80
2023-11-18T15:01:37.150Z,23.80
2023-11-18T15:04:31.592Z,23.70
2023-11-18T15:07:25.866Z,23.70
2023-11-18T15:10:25.578Z,23.70
2023-11-18T15:13:20.471Z,23.70
2023-11-18T15:16:14.786Z,23.70
2023-11-18T15:19:09.073Z,23.70
2023-11-18T15:22:04.053Z,23.70
2023-11-18T15:25:01.853Z,23.60
2023-11-18T15:27:58.361Z,23.60
2023-11-18T15:30:52.747Z,23.60
2023-11-18T15:33:50.028Z,23.60
2023-11-18T15:36:45.208Z,23.60
2023-11-18T15:39:39.474Z,23.60
2023-11-18T15:42:35.532Z,23.50
2023-11-18T15:45:30.714Z,23.50
2023-11-18T15:48:25.058Z,23.40
2023-11-18T15:51:22.179Z,23.40
2023-11-18T15:54:17.814Z,23.40
2023-11-18T15:57:12.096Z,23.40
2023-11-18T16:00:08.406Z,23.30
2023-11-18T16:03:03.692Z,23.30
2023-11-18T16:05:58.024Z,23.30
2023-11-18T16:08:52.282Z,23.30
2023-11-18T16:11:46.515Z,23.20
2023-11-18T16:14:40.813Z,23.20
2023-11-18T16:17:35.371Z,23.20
2023-11-18T16:20:34.999Z,23.20
2023-11-18T16:23:32.200Z,23.10
2023-11-18T16:26:26.554Z,23.00
2023-11-18T16:29:20.947Z,22.90
2023-11-18T16:32:15.293Z,22.80
2023-11-18T16:35:14.305Z,22.80
2023-11-18T16:38:10.024Z,22.80
2023-11-18T16:41:04.671Z,22.80
2023-11-18T16:43:59.076Z,22.80
2023-11-18T16:46:54.340Z,22.80
2023-11-18T16:50:00.588Z,22.80
2023-11-18T16:52:58.422Z,22.80
2023-11-18T16:55:52.764Z,22.80
2023-11-18T16:58:47.069Z,22.80
2023-11-18T17:01:41.328Z,22.80
2023-11-18T17:04:35.853Z,22.80
2023-11-18T17:07:30.135Z,22.80
2023-11-18T17:10:25.114Z,22.70
2023-11-18T17:13:19.360Z,22.70
2023-11-18T17:16:14.619Z,22.60
2023-11-18T17:19:11.253Z,22.60
2023-11-18T17:22:06.799Z,22.60
2023-11-18T17:25:00.955Z,22.50
2023-11-18T17:27:57.839Z,22.50
2023-11-18T17:30:53.145Z,22.50
2023-11-18T17:33:48.784Z,22.50
2023-11-18T17:36:43.301Z,22.40
2023-11-18T17:39:37.704Z,22.30
2023-11-18T17:42:33.087Z,22.30
2023-11-18T17:45:27.437Z,22.20
2023-11-18T17:48:22.253Z,22.20
2023-11-18T17:51:17.012Z,22.20
2023-11-18T17:54:11.237Z,22.10
2023-11-18T17:57:05.906Z,22.10
2023-11-18T18:00:00.316Z,22.10
2023-11-18T18:02:55.032Z,22.10
2023-11-18T18:05:49.231Z,22.10
2023-11-18T18:08:43.591Z,22.10
2023-11-18T18:11:37.839Z,22.10
2023-11-18T18:14:32.194Z,22.00
2023-11-18T18:17:26.763Z,22.00
2023-11-18T18:20:22.729Z,22.00
2023-11-18T18:23:18.166Z,22.00
2023-11-18T18:26:12.634Z,22.00
2023-11-18T18:29:07.856Z,22.00
2023-11-18T18:32:02.229Z,22.00
2023-11-18T18:34:56.430Z,22.00
2023-11-18T18:37:50.930Z,21.90
2023-11-18T18:40:45.253Z,21.90
2023-11-18T18:43:39.528Z,21.80
2023-11-18T18:46:33.856Z,21.80
2023-11-18T18:49:28.690Z,21.80
2023-11-18T18:52:22.941Z,21.70
2023-11-18T18:55:19.755Z,21.70
2023-11-18T18:58:14.037Z,21.60
2023-11-18T19:01:14.836Z,21.60
2023-11-18T19:04:10.281Z,21.50
2023-11-18T19:07:04.679Z,21.50
2023-11-18T19:09:59.334Z,21.40
2023-11-18T19:12:55.712Z,21.40
2023-11-18T19:15:53.342Z,21.40
2023-11-18T19:18:48.648Z,21.30
2023-11-18T19:21:43.087Z,21.20
2023-11-18T19:24:37.629Z,21.10
2023-11-18T19:27:33.188Z,21.10
2023-11-18T19:30:28.552Z,21.00
2023-11-18T19:33:23.718Z,20.90
2023-11-18T19:36:18.053Z,20.90
2023-11-18T19:39:12.382Z,20.80
2023-11-18T19:42:07.470Z,20.80
2023-11-18T19:45:01.969Z,20.80
2023-11-18T19:47:56.401Z,20.80
2023-11-18T19:50:50.839Z,20.70
2023-11-18T19:53:45.706Z,20.70
2023-11-18T19:56:40.924Z,20.60
2023-11-18T19:59:35.323Z,20.60
2023-11-18T20:02:29.624Z,20.60
2023-11-18T20:05:24.178Z,20.60
2023-11-18T20:08:19.544Z,20.50
2023-11-18T20:11:14.362Z,20.50
2023-11-18T20:14:08.597Z,20.50
2023-11-18T20:17:03.426Z,20.50
2023-11-18T20:19:57.715Z,20.40
2023-11-18T20:22:55.668Z,20.40
2023-11-18T20:25:50.318Z,20.40
2023-11-18T20:28:44.577Z,20.40
2023-11-18T20:31:39.178Z,20.30
2023-11-18T20:34:33.890Z,20.30
2023-11-18T20:37:28.509Z,20.30
2023-11-18T20:40:25.641Z,20.20
2023-11-18T20:43:19.931Z,20.20
2023-11-18T20:46:14.451Z,20.20
2023-11-18T20:49:08.759Z,20.30
2023-11-18T20:52:03.000Z,20.30
2023-11-18T20:54:57.390Z,20.30
2023-11-18T20:57:51.624Z,20.30
2023-11-18T21:00:45.916Z,20.20
2023-11-18T21:03:40.383Z,20.20
2023-11-18T21:06:35.000Z,20.20
2023-11-18T21:09:29.286Z,20.30
2023-11-18T21:12:24.067Z,20.30
2023-11-18T21:15:18.505Z,20.40
2023-11-18T21:18:14.688Z,20.40
2023-11-18T21:21:09.107Z,20.50
2023-11-18T21:24:05.394Z,20.50
2023-11-18T21:26:59.649Z,20.60
2023-11-18T21:29:53.855Z,20.70
2023-11-18T21:32:48.516Z,20.80
2023-11-18T21:35:42.805Z,20.90
2023-11-18T21:38:37.124Z,21.00
2023-11-18T21:41:31.425Z,21.10
2023-11-18T21:44:25.686Z,21.10
2023-11-18T21:47:20.025Z,21.20
2023-11-18T21:50:17.566Z,21.30
2023-11-18T21:53:11.859Z,21.40
2023-11-18T21:56:07.748Z,21.50
2023-11-18T21:59:02.548Z,21.70
2023-11-18T22:01:59.760Z,21.90
2023-11-18T22:04:53.492Z,22.20
2023-11-18T22:07:48.269Z,22.60
2023-11-18T22:10:42.578Z,23.10
2023-11-18T22:13:37.525Z,23.60
2023-11-18T22:16:31.850Z,24.10
2023-11-18T22:19:28.747Z,24.50
2023-11-18T22:22:23.377Z,24.80
2023-11-18T22:25:17.781Z,25.20
2023-11-18T22:28:13.540Z,25.50
2023-11-18T22:31:09.248Z,25.70
2023-11-18T22:34:03.486Z,25.90
2023-11-18T22:36:57.781Z,26.00
2023-11-18T22:39:52.113Z,26.00
2023-11-18T22:42:49.368Z,26.00
2023-11-18T22:45:43.642Z,26.00
2023-11-18T22:48:37.988Z,25.90
2023-11-18T22:51:32.571Z,25.90
2023-11-18T22:54:27.091Z,26.00
2023-11-18T22:57:21.674Z,26.10
2023-11-18T23:00:35.357Z,26.20
2023-11-18T23:03:35.842Z,26.20
2023-11-18T23:06:31.478Z,26.20
2023-11-18T23:09:27.187Z,26.30
2023-11-18T23:12:21.708Z,26.50
2023-11-18T23:15:16.077Z,26.60
2023-11-18T23:18:11.790Z,26.70
2023-11-18T23:21:06.172Z,26.80
2023-11-18T23:24:00.444Z,26.90
2023-11-18T23:26:54.679Z,27.00
2023-11-18T23:29:48.913Z,27.10
2023-11-18T23:32:44.744Z,27.10
2023-11-18T23:35:41.670Z,27.20
2023-11-18T23:38:36.457Z,27.40
2023-11-18T23:41:31.049Z,27.40
2023-11-18T23:44:26.457Z,27.50
2023-11-18T23:47:20.805Z,27.70
2023-11-18T23:50:15.141Z,27.70
2023-11-18T23:53:12.352Z,27.80
2023-11-18T23:56:08.254Z,27.80
2023-11-18T23:59:02.596Z,27.90
